Avon, Utah
Current Conditions -  °F | °C
As of 4:55 AM on Sunday 25 Jan 2015 (Local Time) from KBMC Reporting Station
Overcast Overcast  
Wind Chill: 29°   Ceiling: 3800
Heat Index: 33°   Visibility: 7mi
Dew Point: 29°   Wind: 5mph
Humidity: 85%   Direction: 340°NNW
Pressure: 30.47"   Gusts: NA
Location:  41.5397°N, 111.856°W
Report Text: KBMC 251155Z AUTO 34004KT 7SM OVC038 01/M02 A3047 RMK AO1 T00071016 10087 21077
Loading
Personal Weather Stations






























Interactive Weather Map New forecast layout! Learn more

10-Day Weather Forecast

Advertisements
Track Severe Weather on mobile